Hlavní strana
METAR-TAF:

METAR-TAF

Letiště :

Fukuoka, Japonsko

zeměpisná šířka: 33-35N, zeměpisná délka: 130-27E, výška: 9 m

Aktuální stav počasí

Zpráva byla vytvořena před 41 minutami, v 08:00 UTC
Severozápadní vítr 8 kt
Teplota 14°C
Vlhkost vzduchu 67%
Tlak 1024 hPa
Viditelnost 10 km a více
Žádná oblačnost pod 1500 m, nevyskytují se cumulonimby.

METAR: RJFF 240800Z 31008KT CAVOK 14/08 Q1024 NOSIG RMK A3024

Čas: 17:41 (08:41 UTC)

Předpověď počasí

Zpráva byla vytvořena před 3 hodinami a 30 minutami, v 05:11 UTC
Předpověď platná od 24 v 06 UTC do 25 v 12 UTC
Severozápadní vítr 9 kt
Viditelnost 10 km a více
Skoro jasno ve výšce 4000 ft
Změna
od 24 v 09 UTC do 24 v 11 UTC
Jihojihovýchodní vítr 12 kt
Dočasný
od 25 v 00 UTC do 25 v 06 UTC
Jižní vítr 18 kt s nárazy do 30 kt

TAF: RJFF 240511Z 2406/2512 32009KT 9999 FEW040 BECMG 2409/2411 15012KT TEMPO 2500/2506 17018G30KT

Stav a předpovědi počasí z více než 4 000 letišť (zprávy METAR a TAF).

Červené a žluté tečky na mapě představují dostupné meteorologické stanice.

Když kurzor umístíte na tečku, zobrazí se název stanice.

Pak kliknutím zobrazíte stav a předpověď počasí.

Chcete-li změnit mapu, kliknutím na zelené tlačítko se znaménkem +mapu přiblížíte, kliknutím na zelené tlačítko se znaménkem – mapu oddálíte a kliknutím na zelené šipky přejdete na sousední mapy.


METAR-TAF: